Time;durP1;ratioP1;P1;durP2;ratioP2;P2;SDS_P1;SDS_P2;PMS_P1;PMS_P2;Temp;Humidity;BMP_temperature;BMP_pressure;BME280_temperature;BME280_humidity;BME280_pressure;Samples;Min_cycle;Max_cycle;Signal;HPM_P1;HPM_P2
2022/09/21 00:00:44;;;;;;;;;;;;;;;13.12;62.03;100204.72;4445402;32;20007;-86
2022/09/21 00:03:11;;;;;;;;;;;;;;;13.47;61.01;100203.37;4445612;32;19989;-90
2022/09/21 00:05:39;;;;;;;;;;;;;;;12.88;62.78;100211.34;4447935;32;19995;-86
2022/09/21 00:08:06;;;;;;;;;;;;;;;13.08;62.19;100202.91;4444930;32;20009;-83
2022/09/21 00:10:33;;;;;;;;;;;;;;;13.00;62.15;100201.09;4447626;32;20333;-84
2022/09/21 00:13:03;;;;;;;;;;;;;;;13.30;61.39;100210.13;4447092;32;20065;-82
2022/09/21 00:15:30;;;;;;;;;;;;;;;13.10;61.65;100209.00;4446947;32;20382;-91
2022/09/21 00:17:57;;;;;;;;;;;;;;;12.42;64.29;100205.53;4447278;32;20022;-86
2022/09/21 00:20:25;;;;;;;;;;;;;;;12.52;64.40;100211.72;4458535;32;19993;-84
2022/09/21 00:22:52;;;;;;;;;;;;;;;12.57;64.51;100216.13;4446744;32;19981;-85
2022/09/21 00:25:19;;;;;;;;;;;;;;;12.57;64.78;100205.75;4447089;32;19969;-85
2022/09/21 00:27:50;;;;;;;;;;;;;;;12.79;63.81;100206.00;4447454;32;19977;-90
2022/09/21 00:30:17;;;;;;;;;;;;;;;13.13;62.77;100201.25;4446740;32;19989;-88
2022/09/21 00:32:44;;;;;;;;;;;;;;;13.20;62.39;100203.03;4429620;32;20344;-87
2022/09/21 00:35:10;;;;;;;;;;;;;;;13.33;62.01;100199.75;4431523;32;20034;-90
2022/09/21 00:37:37;;;;;;;;;;;;;;;13.43;61.27;100211.13;4442552;32;19982;-84
2022/09/21 00:40:05;;;;;;;;;;;;;;;13.59;60.55;100201.75;4446862;32;19981;-84
2022/09/21 00:42:32;;;;;;;;;;;;;;;13.71;59.97;100207.06;4446820;32;20376;-83
2022/09/21 00:45:00;;;;;;;;;;;;;;;13.51;60.58;100208.62;4451220;32;19996;-87
2022/09/21 00:47:40;;;;;;;;;;;;;;;13.49;60.28;100209.47;4444243;32;20267;-86
2022/09/21 00:50:12;;;;;;;;;;;;;;;13.51;60.14;100213.81;4444582;32;19999;-86
2022/09/21 00:52:41;;;;;;;;;;;;;;;13.69;59.49;100208.81;4446776;32;19977;-85
2022/09/21 00:55:13;;;;;;;;;;;;;;;13.61;59.46;100219.13;4458395;32;19973;-88
2022/09/21 00:57:40;;;;;;;;;;;;;;;13.57;59.56;100213.87;4456729;32;20091;-85
2022/09/21 01:00:08;;;;;;;;;;;;;;;13.57;59.50;100219.97;4444451;32;20109;-87
2022/09/21 01:02:36;;;;;;;;;;;;;;;13.48;59.52;100225.94;4446267;32;19981;-84
2022/09/21 01:05:04;;;;;;;;;;;;;;;13.51;59.49;100229.44;4446886;32;19992;-82
2022/09/21 01:07:31;;;;;;;;;;;;;;;13.60;59.26;100224.31;4446720;32;19995;-86
2022/09/21 01:09:59;;;;;;;;;;;;;;;13.48;59.70;100222.47;4457965;32;19977;-85
2022/09/21 01:12:45;;;;;;;;;;;;;;;13.55;59.51;100224.25;4457931;32;19981;-90
2022/09/21 01:15:30;;;;;;;;;;;;;;;13.67;59.15;100226.13;4446467;32;19987;-89
2022/09/21 01:18:04;;;;;;;;;;;;;;;13.54;59.52;100219.94;4446293;32;19995;-89
2022/09/21 01:20:50;;;;;;;;;;;;;;;13.54;59.15;100221.66;4447031;32;19985;-86
2022/09/21 01:23:26;;;;;;;;;;;;;;;13.42;59.91;100220.66;4444603;32;19995;-88
2022/09/21 01:26:15;;;;;;;;;;;;;;;13.38;60.00;100224.09;4457758;32;19988;-83
2022/09/21 01:28:45;;;;;;;;;;;;;;;13.33;60.05;100225.75;4458019;32;19977;-88
2022/09/21 01:31:13;;;;;;;;;;;;;;;13.37;59.95;100227.56;4445855;32;19973;-82
2022/09/21 01:33:45;;;;;;;;;;;;;;;13.43;59.54;100226.72;4444122;32;20024;-89
2022/09/21 01:36:13;;;;;;;;;;;;;;;13.14;60.60;100228.97;4429853;32;19982;-86
2022/09/21 01:38:44;;;;;;;;;;;;;;;13.11;60.47;100228.94;4457300;32;19982;-88
2022/09/21 01:41:12;;;;;;;;;;;;;;;13.25;60.31;100230.00;4444656;32;19989;-84
2022/09/21 01:43:39;;;;;;;;;;;;;;;13.31;59.79;100222.28;4445006;32;20078;-88
2022/09/21 01:46:06;;;;;;;;;;;;;;;13.23;60.10;100223.87;4457869;32;19973;-81
2022/09/21 01:48:34;;;;;;;;;;;;;;;13.06;60.64;100228.03;4456870;32;20330;-85
2022/09/21 01:51:02;;;;;;;;;;;;;;;13.15;60.51;100233.34;4446328;32;20281;-82
2022/09/21 01:53:36;;;;;;;;;;;;;;;13.30;59.61;100230.91;4445824;32;20035;-85
2022/09/21 01:56:04;;;;;;;;;;;;;;;13.18;60.19;100230.78;4122525;32;5012278;-87
2022/09/21 01:58:49;;;;;;;;;;;;;;;13.26;60.25;100234.34;4448420;32;20355;-88
2022/09/21 02:01:17;;;;;;;;;;;;;;;13.30;59.94;100230.91;4427558;32;19999;-86
2022/09/21 02:03:46;;;;;;;;;;;;;;;13.31;59.60;100232.69;4437482;32;20008;-87
2022/09/21 02:06:13;;;;;;;;;;;;;;;13.20;60.55;100234.25;4301059;32;5001649;-89
2022/09/21 02:08:39;;;;;;;;;;;;;;;13.09;61.59;100241.06;4451711;32;19981;-85
2022/09/21 02:11:06;;;;;;;;;;;;;;;13.36;60.19;100225.78;4444094;32;20005;-82
2022/09/21 02:13:34;;;;;;;;;;;;;;;13.47;59.93;100239.78;4446487;32;19989;-85
2022/09/21 02:16:01;;;;;;;;;;;;;;;13.44;60.21;100239.75;4446085;32;20022;-86
2022/09/21 02:18:46;;;;;;;;;;;;;;;13.45;59.96;100236.28;4446885;32;19988;-88
2022/09/21 02:21:40;;;;;;;;;;;;;;;13.42;59.93;100244.06;4448397;32;19995;-86
2022/09/21 02:24:08;;;;;;;;;;;;;;;13.40;59.63;100242.28;4446230;32;19985;-83
2022/09/21 02:26:38;;;;;;;;;;;;;;;13.48;59.54;100244.13;4395557;32;20392;-83
2022/09/21 02:29:17;;;;;;;;;;;;;;;13.53;59.38;100245.91;4394777;32;20017;-88
2022/09/21 02:31:47;;;;;;;;;;;;;;;13.33;60.04;100250.87;4392218;32;20057;-86
2022/09/21 02:34:16;;;;;;;;;;;;;;;13.41;60.14;100244.94;4403065;32;20706;-88
2022/09/21 02:36:47;;;;;;;;;;;;;;;13.42;59.97;100244.06;4416469;32;20039;-88
2022/09/21 02:39:15;;;;;;;;;;;;;;;13.40;59.83;100243.19;4400319;32;19994;-89
2022/09/21 02:41:46;;;;;;;;;;;;;;;13.42;59.98;100235.41;4388288;32;19994;-83
2022/09/21 02:44:39;;;;;;;;;;;;;;;13.47;59.81;100245.00;4403205;32;20083;-85
2022/09/21 02:47:08;;;;;;;;;;;;;;;13.54;59.60;100245.06;4412548;32;19977;-84
2022/09/21 02:49:37;;;;;;;;;;;;;;;13.57;59.17;100251.16;4394438;32;19982;-82
2022/09/21 02:52:04;;;;;;;;;;;;;;;13.32;59.51;100257.81;4391904;32;20036;-84
2022/09/21 02:54:31;;;;;;;;;;;;;;;13.39;59.75;100246.63;4399267;32;19986;-84
2022/09/21 02:56:58;;;;;;;;;;;;;;;13.35;60.11;100247.47;4402804;32;19974;-82
2022/09/21 02:59:25;;;;;;;;;;;;;;;13.54;59.24;100245.06;4402385;32;20000;-88
2022/09/21 03:01:52;;;;;;;;;;;;;;;13.56;59.10;100248.53;4402826;32;19973;-83
2022/09/21 03:04:20;;;;;;;;;;;;;;;13.47;59.39;100244.13;4416517;32;19974;-86
2022/09/21 03:06:47;;;;;;;;;;;;;;;13.32;59.60;100250.03;4399794;32;20458;-83
2022/09/21 03:09:14;;;;;;;;;;;;;;;13.26;60.11;100257.75;4408331;32;19986;-88
2022/09/21 03:11:43;;;;;;;;;;;;;;;13.43;59.46;100253.63;4416928;32;19970;-83
2022/09/21 03:14:13;;;;;;;;;;;;;;;13.30;59.82;100267.31;4416794;32;19999;-85
2022/09/21 03:16:40;;;;;;;;;;;;;;;13.35;59.67;100265.66;4416940;32;19970;-84
2022/09/21 03:19:07;;;;;;;;;;;;;;;13.32;59.85;100270.81;4389807;32;20046;-87
2022/09/21 03:21:34;;;;;;;;;;;;;;;13.36;59.69;100267.41;4416987;32;19995;-84
2022/09/21 03:24:01;;;;;;;;;;;;;;;13.37;59.88;100274.37;4416455;32;19997;-87
2022/09/21 03:26:28;;;;;;;;;;;;;;;13.33;60.48;100274.28;4415443;32;19990;-82
2022/09/21 03:28:55;;;;;;;;;;;;;;;13.20;60.82;100276.69;4416628;32;20003;-88
2022/09/21 03:31:25;;;;;;;;;;;;;;;13.41;60.29;100276.12;4390506;32;19990;-82
2022/09/21 03:33:52;;;;;;;;;;;;;;;13.51;59.97;100266.72;4416365;32;20350;-84
2022/09/21 03:36:19;;;;;;;;;;;;;;;13.53;59.95;100271.91;4416555;32;19981;-85
2022/09/21 03:38:47;;;;;;;;;;;;;;;13.46;60.05;100279.66;4401406;32;19993;-87
2022/09/21 03:41:14;;;;;;;;;;;;;;;13.38;60.90;100276.09;4405102;32;19982;-87
2022/09/21 03:43:40;;;;;;;;;;;;;;;13.27;61.35;100282.88;4416347;32;20315;-81
2022/09/21 03:46:07;;;;;;;;;;;;;;;13.25;60.49;100274.22;4416747;32;19957;-85
2022/09/21 03:48:34;;;;;;;;;;;;;;;13.33;60.40;100277.75;4415090;32;19982;-84
2022/09/21 03:51:01;;;;;;;;;;;;;;;13.39;60.25;100283.03;4416281;32;19982;-88
2022/09/21 03:53:28;;;;;;;;;;;;;;;13.48;59.73;100277.94;4415511;32;19982;-82
2022/09/21 03:55:56;;;;;;;;;;;;;;;13.49;59.51;100289.22;4408582;32;19978;-88
2022/09/21 03:58:22;;;;;;;;;;;;;;;13.48;58.49;100288.34;4416594;32;19989;-86
2022/09/21 04:00:49;;;;;;;;;;;;;;;13.35;59.13;100288.19;4416713;32;20753;-86
2022/09/21 04:03:16;;;;;;;;;;;;;;;13.24;59.54;100293.22;4416193;32;20682;-88
2022/09/21 04:05:43;;;;;;;;;;;;;;;13.45;58.88;100290.91;4416653;32;20023;-82
2022/09/21 04:08:10;;;;;;;;;;;;;;;13.48;58.95;100298.75;4416746;32;20347;-85
2022/09/21 04:10:39;;;;;;;;;;;;;;;13.31;59.64;100292.50;4416141;32;20319;-83
2022/09/21 04:13:07;;;;;;;;;;;;;;;13.25;59.11;100300.22;4415448;32;19994;-86
2022/09/21 04:15:35;;;;;;;;;;;;;;;13.25;59.13;100295.00;4399850;32;20021;-88
2022/09/21 04:18:02;;;;;;;;;;;;;;;13.28;59.11;100300.25;4401369;32;20034;-83
2022/09/21 04:20:29;;;;;;;;;;;;;;;13.33;58.76;100298.56;4401778;32;19986;-81
2022/09/21 04:22:56;;;;;;;;;;;;;;;13.32;59.06;100306.34;4430200;32;20018;-89
2022/09/21 04:25:26;;;;;;;;;;;;;;;13.17;59.85;100307.00;4432771;32;19985;-78
2022/09/21 04:27:53;;;;;;;;;;;;;;;13.01;60.49;100305.91;4431217;32;19982;-78
2022/09/21 04:30:20;;;;;;;;;;;;;;;13.26;58.89;100309.75;4431564;32;20026;-82
2022/09/21 04:32:47;;;;;;;;;;;;;;;13.16;59.52;100303.53;4431446;32;19982;-83
2022/09/21 04:35:14;;;;;;;;;;;;;;;13.22;59.46;100307.94;4430360;32;19966;-86
2022/09/21 04:37:41;;;;;;;;;;;;;;;13.31;59.18;100305.50;4443579;32;20715;-80
2022/09/21 04:40:08;;;;;;;;;;;;;;;13.31;58.99;100308.09;4446270;32;20462;-81
2022/09/21 04:42:35;;;;;;;;;;;;;;;13.24;59.56;100308.81;4445794;32;20314;-82
2022/09/21 04:45:02;;;;;;;;;;;;;;;13.31;59.33;100315.88;4447229;32;20313;-80
2022/09/21 04:47:29;;;;;;;;;;;;;;;13.32;59.19;100317.63;4446539;32;19988;-87
2022/09/21 04:49:56;;;;;;;;;;;;;;;13.34;59.01;100315.94;3196872;32;40779372;-82
2022/09/21 04:52:23;;;;;;;;;;;;;;;13.23;59.57;100322.66;4447730;32;19966;-83
2022/09/21 04:54:50;;;;;;;;;;;;;;;13.21;59.62;100327.00;4452807;32;20422;-84
2022/09/21 04:57:17;;;;;;;;;;;;;;;13.05;59.71;100328.50;4460246;32;20315;-84
2022/09/21 04:59:44;;;;;;;;;;;;;;;12.93;61.49;100329.19;4461819;32;20551;-84
2022/09/21 05:02:11;;;;;;;;;;;;;;;12.94;61.50;100333.53;4461029;32;20730;-83
2022/09/21 05:04:37;;;;;;;;;;;;;;;13.35;59.63;100332.41;4462107;32;19969;-79
2022/09/21 05:07:05;;;;;;;;;;;;;;;13.04;60.86;100338.00;4462297;32;19991;-85
2022/09/21 05:12:17;;;;;;;;;;;;;;;12.97;61.39;100336.19;4455872;32;19969;-88
2022/09/21 05:14:44;;;;;;;;;;;;;;;12.85;62.34;100336.00;4461513;32;19980;-82
2022/09/21 05:17:11;;;;;;;;;;;;;;;13.08;61.52;100338.06;4460250;32;20013;-81
2022/09/21 05:19:39;;;;;;;;;;;;;;;13.15;60.75;100334.72;4461462;32;19969;-78
2022/09/21 05:22:06;;;;;;;;;;;;;;;13.00;61.46;100331.03;4460723;32;20010;-83
2022/09/21 05:24:33;;;;;;;;;;;;;;;13.32;60.65;100330.62;4461836;32;19989;-81
2022/09/21 05:27:00;;;;;;;;;;;;;;;13.15;60.85;100330.38;4461556;32;20466;-83
2022/09/21 05:29:27;;;;;;;;;;;;;;;13.43;59.21;100335.94;4460967;32;19996;-80
2022/09/21 05:32:02;;;;;;;;;;;;;;;13.37;59.76;100341.06;4461723;32;20030;-82
2022/09/21 05:34:41;;;;;;;;;;;;;;;13.37;60.05;100341.06;4447463;32;19977;-86
2022/09/21 05:37:09;;;;;;;;;;;;;;;13.27;60.36;100350.47;4461355;32;20026;-79
2022/09/21 05:39:36;;;;;;;;;;;;;;;13.40;59.60;100342.00;4444058;32;20359;-81
2022/09/21 05:42:03;;;;;;;;;;;;;;;13.44;59.43;100342.91;4459144;32;19969;-86
2022/09/21 05:44:30;;;;;;;;;;;;;;;13.42;59.43;100345.47;4459654;32;20329;-81
2022/09/21 05:47:01;;;;;;;;;;;;;;;13.31;60.39;100336.69;4460206;32;19977;-83
2022/09/21 05:49:48;;;;;;;;;;;;;;;13.26;60.80;100343.53;4446787;32;19981;-84
2022/09/21 05:52:38;;;;;;;;;;;;;;;13.42;60.27;100340.28;4447320;32;19991;-80
2022/09/21 05:55:17;;;;;;;;;;;;;;;13.48;59.57;100353.38;4447590;32;20040;-81
2022/09/21 05:57:49;;;;;;;;;;;;;;;13.37;60.60;100347.16;4464102;32;19981;-90
2022/09/21 06:00:16;;;;;;;;;;;;;;;13.34;60.69;100347.12;4463556;32;19993;-84
2022/09/21 06:02:46;;;;;;;;;;;;;;;13.39;60.59;100349.78;4463921;32;19987;-81
2022/09/21 06:05:13;;;;;;;;;;;;;;;13.22;61.27;100346.94;4463246;32;19995;-89
2022/09/21 06:07:40;;;;;;;;;;;;;;;13.37;60.45;100352.37;4463410;32;20456;-89
2022/09/21 06:10:08;;;;;;;;;;;;;;;13.60;59.86;100352.66;4462470;32;19996;-81
2022/09/21 06:12:34;;;;;;;;;;;;;;;13.32;60.85;100353.16;4460233;32;19992;-84
2022/09/21 06:15:01;;;;;;;;;;;;;;;13.22;61.27;100357.31;4460745;32;20081;-82
2022/09/21 06:17:28;;;;;;;;;;;;;;;13.20;61.86;100359.88;4463056;32;20000;-81
2022/09/21 06:19:55;;;;;;;;;;;;;;;13.78;59.22;100358.91;4461110;32;20576;-85
2022/09/21 06:22:21;;;;;;;;;;;;;;;13.71;59.63;100357.97;4463452;32;19987;-84
2022/09/21 06:24:48;;;;;;;;;;;;;;;13.53;60.40;100362.94;4460417;32;19976;-82
2022/09/21 06:27:15;;;;;;;;;;;;;;;13.32;61.15;100364.41;4462896;32;19980;-79
2022/09/21 06:29:42;;;;;;;;;;;;;;;13.94;58.56;100366.94;4461302;32;19973;-88
2022/09/21 06:32:09;;;;;;;;;;;;;;;13.64;59.57;100357.03;4462912;32;19981;-83
2022/09/21 06:34:36;;;;;;;;;;;;;;;13.73;59.63;100361.47;4460558;32;20679;-84
2022/09/21 06:37:03;;;;;;;;;;;;;;;14.02;58.51;100360.91;4454636;32;19985;-80
2022/09/21 06:39:30;;;;;;;;;;;;;;;13.93;58.88;100370.38;4441877;32;19985;-84
2022/09/21 06:41:58;;;;;;;;;;;;;;;13.89;59.18;100373.78;4454535;32;20048;-80
2022/09/21 06:44:25;;;;;;;;;;;;;;;13.80;59.42;100368.47;4455172;32;20112;-78
2022/09/21 06:46:52;;;;;;;;;;;;;;;13.91;59.60;100372.09;4453751;32;19996;-79
2022/09/21 06:49:18;;;;;;;;;;;;;;;14.02;59.79;100368.72;4455495;32;20773;-80
2022/09/21 06:51:46;;;;;;;;;;;;;;;14.09;59.46;100375.72;4456104;32;20252;-84
2022/09/21 06:54:13;;;;;;;;;;;;;;;14.19;59.01;100378.44;4458499;32;20034;-82
2022/09/21 06:56:42;;;;;;;;;;;;;;;14.25;59.47;100382.84;4447705;32;19996;-84
2022/09/21 06:59:08;;;;;;;;;;;;;;;14.64;58.01;100381.47;4462517;32;19989;-81
2022/09/21 07:01:35;;;;;;;;;;;;;;;14.91;56.91;100382.56;4462303;32;19999;-83
2022/09/21 07:04:02;;;;;;;;;;;;;;;15.12;56.50;100380.09;4462164;32;19992;-85
2022/09/21 07:06:29;;;;;;;;;;;;;;;15.34;55.98;100381.97;4462691;32;20034;-84
2022/09/21 07:08:57;;;;;;;;;;;;;;;15.83;55.72;100390.94;4461787;32;19989;-81
2022/09/21 07:11:44;;;;;;;;;;;;;;;16.13;54.53;100380.56;4461703;32;19973;-82
2022/09/21 07:14:11;;;;;;;;;;;;;;;16.63;52.53;100387.59;4463133;32;19988;-88
2022/09/21 07:16:37;;;;;;;;;;;;;;;16.80;51.70;100384.12;4462586;32;19988;-89
2022/09/21 07:19:04;;;;;;;;;;;;;;;17.10;51.44;100389.34;4432209;32;20039;-85
2022/09/21 07:21:39;;;;;;;;;;;;;;;17.12;51.46;100387.56;4448780;32;19973;-80
2022/09/21 07:24:05;;;;;;;;;;;;;;;17.57;50.51;100385.69;4447642;32;20041;-84
2022/09/21 07:26:37;;;;;;;;;;;;;;;17.73;50.43;100385.63;4445084;32;20001;-87
2022/09/21 07:29:04;;;;;;;;;;;;;;;18.12;48.75;100384.56;4447324;32;20000;-82
2022/09/21 07:31:31;;;;;;;;;;;;;;;18.36;49.03;100388.81;4446430;32;20414;-86
2022/09/21 07:33:58;;;;;;;;;;;;;;;18.40;47.69;100384.41;4457415;32;20388;-88
2022/09/21 07:36:25;;;;;;;;;;;;;;;18.40;48.06;100387.88;4448639;32;19985;-81
2022/09/21 07:38:52;;;;;;;;;;;;;;;18.49;47.51;100387.81;4460524;32;19999;-83
2022/09/21 07:41:19;;;;;;;;;;;;;;;18.73;46.59;100393.78;4461550;32;19973;-79
2022/09/21 07:43:46;;;;;;;;;;;;;;;18.79;46.03;100389.37;4462456;32;19981;-83
2022/09/21 07:46:13;;;;;;;;;;;;;;;18.76;47.73;100399.00;4462870;32;19995;-84
2022/09/21 07:48:40;;;;;;;;;;;;;;;18.98;46.87;100395.31;4447239;32;19989;-88
2022/09/21 07:51:08;;;;;;;;;;;;;;;19.00;45.79;100403.19;4462297;32;19972;-84
2022/09/21 07:53:36;;;;;;;;;;;;;;;18.91;46.19;100398.00;4462641;32;19974;-83
2022/09/21 07:56:04;;;;;;;;;;;;;;;19.16;44.97;100403.91;4448153;32;19992;-83
2022/09/21 08:01:16;;;;;;;;;;;;;;;19.16;45.98;100398.66;4461870;32;19995;-81
2022/09/21 08:03:44;;;;;;;;;;;;;;;19.26;46.65;100389.78;4462322;32;19976;-88
2022/09/21 08:06:10;;;;;;;;;;;;;;;19.70;44.22;100391.06;4462241;32;20396;-86
2022/09/21 08:08:38;;;;;;;;;;;;;;;19.67;43.44;100396.34;4447792;32;20337;-82
2022/09/21 08:11:05;;;;;;;;;;;;;;;19.59;43.55;100387.66;4461155;32;19988;-82
2022/09/21 08:13:32;;;;;;;;;;;;;;;18.86;46.81;100395.44;4462536;32;19995;-85
2022/09/21 08:15:59;;;;;;;;;;;;;;;19.07;45.86;100398.72;4461118;32;20068;-88
2022/09/21 08:18:26;;;;;;;;;;;;;;;19.37;47.12;100398.44;4439335;32;20348;-89
2022/09/21 08:20:54;;;;;;;;;;;;;;;19.80;45.56;100403.19;4462235;32;19969;-85
2022/09/21 08:23:21;;;;;;;;;;;;;;;20.22;42.73;100387.72;4448682;32;20025;-94
2022/09/21 08:25:49;;;;;;;;;;;;;;;19.98;46.51;100402.09;4462241;32;19989;-94
2022/09/21 08:28:17;;;;;;;;;;;;;;;20.14;43.75;100398.38;4465598;32;19999;-94
2022/09/21 08:30:44;;;;;;;;;;;;;;;20.34;43.96;100400.69;4465660;32;19973;-95
2022/09/21 08:33:11;;;;;;;;;;;;;;;20.30;42.93;100393.75;4451922;32;19972;-94
2022/09/21 08:35:37;;;;;;;;;;;;;;;20.41;42.92;100397.06;4464325;32;19972;-91
2022/09/21 08:38:05;;;;;;;;;;;;;;;20.68;41.67;100394.94;4432132;32;19996;-94
2022/09/21 08:40:33;;;;;;;;;;;;;;;20.37;44.32;100387.50;4462642;32;19965;-84
2022/09/21 08:43:01;;;;;;;;;;;;;;;20.49;43.21;100393.47;4462690;32;19978;-87
2022/09/21 08:45:31;;;;;;;;;;;;;;;20.51;42.37;100396.94;4448152;32;19985;-84
2022/09/21 08:47:58;;;;;;;;;;;;;;;20.11;44.68;100402.81;4462238;32;19996;-85
2022/09/21 08:50:28;;;;;;;;;;;;;;;20.21;43.36;100391.25;4447093;32;19996;-84
2022/09/21 08:52:57;;;;;;;;;;;;;;;20.31;43.25;100395.47;4462201;32;20334;-89
2022/09/21 08:55:24;;;;;;;;;;;;;;;20.51;42.19;100396.94;4447359;32;19995;-82
2022/09/21 08:57:51;;;;;;;;;;;;;;;20.19;44.29;100400.91;4462257;32;19985;-84
2022/09/21 09:00:18;;;;;;;;;;;;;;;20.41;43.01;100407.59;4432551;32;19989;-84
2022/09/21 09:03:10;;;;;;;;;;;;;;;20.47;42.54;100405.78;4440131;32;21325;-80
2022/09/21 09:05:43;;;;;;;;;;;;;;;20.50;43.87;100403.09;4464394;32;19953;-82
2022/09/21 09:08:17;;;;;;;;;;;;;;;20.85;42.48;100403.41;4454226;32;19941;-79
2022/09/21 09:11:02;;;;;;;;;;;;;;;20.40;43.13;100405.88;4466323;32;19969;-85
2022/09/21 09:13:41;;;;;;;;;;;;;;;20.19;44.47;100400.91;4467422;32;20012;-85
2022/09/21 09:16:14;;;;;;;;;;;;;;;20.73;42.99;100405.38;4467776;32;20021;-81
2022/09/21 09:18:45;;;;;;;;;;;;;;;20.92;41.60;100405.94;4465499;32;20022;-89
2022/09/21 09:21:15;;;;;;;;;;;;;;;20.41;46.31;100407.59;4464907;32;19999;-79
2022/09/21 09:23:53;;;;;;;;;;;;;;;20.79;41.61;100402.66;4467152;32;20337;-79
2022/09/21 09:26:25;;;;;;;;;;;;;;;20.63;43.22;100396.78;4451594;32;20000;-92
2022/09/21 09:28:59;;;;;;;;;;;;;;;19.98;46.80;100397.72;4466477;32;20771;-90
2022/09/21 09:31:30;;;;;;;;;;;;;;;20.17;46.41;100397.47;4466280;32;20654;-82
2022/09/21 09:33:57;;;;;;;;;;;;;;;20.64;42.19;100399.41;4464468;32;20329;-84
2022/09/21 09:36:28;;;;;;;;;;;;;;;20.88;41.87;100408.62;4464134;32;20050;-81
2022/09/21 09:39:15;;;;;;;;;;;;;;;20.57;42.81;100396.87;4455648;32;20323;-93
2022/09/21 09:42:01;;;;;;;;;;;;;;;20.47;44.95;100395.25;4448017;32;19992;-83
2022/09/21 09:44:46;;;;;;;;;;;;;;;20.31;46.00;100395.47;4461319;32;19999;-83
2022/09/21 09:47:22;;;;;;;;;;;;;;;20.32;45.72;100396.34;4462229;32;19973;-90
2022/09/21 09:50:01;;;;;;;;;;;;;;;20.97;42.49;100397.06;4454925;32;19989;-80
2022/09/21 09:52:28;;;;;;;;;;;;;;;20.95;41.79;100392.72;4462653;32;20682;-95
2022/09/21 09:54:55;;;;;;;;;;;;;;;21.23;40.71;100399.22;4452604;32;19999;-88
2022/09/21 09:57:25;;;;;;;;;;;;;;;20.63;42.03;100394.16;4461778;32;19985;-89
2022/09/21 09:59:54;;;;;;;;;;;;;;;20.67;42.61;100387.94;4462185;32;20030;-90
2022/09/21 10:02:22;;;;;;;;;;;;;;;21.12;41.32;100395.91;4432230;32;20696;-92
2022/09/21 10:05:05;;;;;;;;;;;;;;;20.87;41.14;100388.47;4450872;32;19985;-91
2022/09/21 10:07:39;;;;;;;;;;;;;;;20.99;40.45;100397.03;4454414;32;20321;-88
2022/09/21 10:10:30;;;;;;;;;;;;;;;20.93;40.12;100389.25;4461723;32;19981;-87
2022/09/21 10:13:15;;;;;;;;;;;;;;;20.93;39.87;100384.88;4452773;32;20003;-89
2022/09/21 10:15:44;;;;;;;;;;;;;;;20.54;42.90;100389.03;4447394;32;20395;-91
2022/09/21 10:18:15;;;;;;;;;;;;;;;20.56;42.17;100384.62;4460835;32;20297;-89
2022/09/21 10:20:55;;;;;;;;;;;;;;;20.80;42.76;100384.19;4442374;32;20034;-89
2022/09/21 10:23:21;;;;;;;;;;;;;;;21.01;40.64;100377.69;4453596;32;20313;-90
2022/09/21 10:25:52;;;;;;;;;;;;;;;20.97;42.36;100380.44;4451507;32;20285;-85
2022/09/21 10:28:19;;;;;;;;;;;;;;;20.86;40.84;100373.56;4447631;32;19974;-92
2022/09/21 10:30:47;;;;;;;;;;;;;;;20.88;40.95;100371.78;4435122;32;20332;-86
2022/09/21 10:33:19;;;;;;;;;;;;;;;20.80;42.30;100363.13;4452968;32;20340;-82
2022/09/21 10:35:49;;;;;;;;;;;;;;;20.69;41.90;100365.09;4449308;32;19985;-87
2022/09/21 10:38:17;;;;;;;;;;;;;;;20.57;42.50;100365.31;4464481;32;19985;-90
2022/09/21 10:40:48;;;;;;;;;;;;;;;20.61;42.17;100366.97;4444464;32;19976;-93
2022/09/21 10:43:21;;;;;;;;;;;;;;;20.57;42.30;100365.31;4446765;32;19970;-87
2022/09/21 10:45:54;;;;;;;;;;;;;;;20.87;41.68;100359.53;4451844;32;19996;-88
2022/09/21 10:48:21;;;;;;;;;;;;;;;21.09;40.27;100353.84;4278980;32;5003673;-90
2022/09/21 10:50:48;;;;;;;;;;;;;;;20.96;39.66;100363.75;4442337;32;19982;-86
2022/09/21 10:53:18;;;;;;;;;;;;;;;21.15;40.05;100353.72;4440500;32;19973;-90
2022/09/21 10:55:56;;;;;;;;;;;;;;;21.15;40.57;100353.72;4457488;32;19974;-91
2022/09/21 10:59:01;;;;;;;;;;;;;;;20.89;42.76;100357.72;4442277;32;19988;-88
2022/09/21 11:01:28;;;;;;;;;;;;;;;21.05;39.78;100358.31;4455275;32;20000;-89
2022/09/21 11:03:55;;;;;;;;;;;;;;;21.16;39.47;100347.59;4443922;32;20524;-90
2022/09/21 11:06:30;;;;;;;;;;;;;;;21.42;38.77;100346.25;4454670;32;19980;-90
2022/09/21 11:08:58;;;;;;;;;;;;;;;21.24;39.95;100348.28;4448297;32;19999;-88
2022/09/21 11:11:43;;;;;;;;;;;;;;;21.29;40.20;100346.44;4447501;32;20048;-88
2022/09/21 11:14:13;;;;;;;;;;;;;;;20.76;41.87;100356.22;4463082;32;19985;-88
2022/09/21 11:16:44;;;;;;;;;;;;;;;20.28;44.34;100350.81;4434930;32;20050;-89
2022/09/21 11:19:11;;;;;;;;;;;;;;;20.30;42.13;100351.69;4448660;32;20365;-86
2022/09/21 11:21:40;;;;;;;;;;;;;;;20.58;41.48;100346.00;4463485;32;19996;-89
2022/09/21 11:24:22;;;;;;;;;;;;;;;20.94;39.80;100354.16;4449098;32;20004;-88
2022/09/21 11:26:58;;;;;;;;;;;;;;;20.87;38.35;100343.75;4462781;32;19980;-83
2022/09/21 11:29:46;;;;;;;;;;;;;;;20.73;39.05;100340.47;4463159;32;19984;-85
2022/09/21 11:32:17;;;;;;;;;;;;;;;20.89;37.97;100341.94;4445793;32;19986;-81
2022/09/21 11:35:02;;;;;;;;;;;;;;;20.94;36.58;100338.37;4462743;32;19984;-82
2022/09/21 11:37:39;;;;;;;;;;;;;;;21.02;36.95;100341.72;4463028;32;20000;-85
2022/09/21 11:40:08;;;;;;;;;;;;;;;20.78;37.54;100338.63;4461578;32;19992;-83
2022/09/21 11:42:41;;;;;;;;;;;;;;;21.20;36.78;100332.59;4463076;32;19995;-84
2022/09/21 11:45:22;;;;;;;;;;;;;;;20.86;38.09;100341.97;4448127;32;19985;-86
2022/09/21 11:47:56;;;;;;;;;;;;;;;20.89;37.60;100336.66;4447209;32;19992;-85
2022/09/21 11:50:35;;;;;;;;;;;;;;;21.21;36.80;100316.75;4461908;32;20048;-84
2022/09/21 11:53:10;;;;;;;;;;;;;;;21.44;36.83;100318.09;4433383;32;20337;-86
2022/09/21 11:55:55;;;;;;;;;;;;;;;21.46;36.52;100318.94;4432952;32;19973;-81
2022/09/21 11:58:28;;;;;;;;;;;;;;;21.21;37.10;100322.03;4437400;32;19976;-86
2022/09/21 12:01:04;;;;;;;;;;;;;;;21.01;37.08;100318.94;4442901;32;19989;-83
2022/09/21 12:03:34;;;;;;;;;;;;;;;21.24;37.75;100319.34;4445502;32;19986;-83
2022/09/21 12:06:15;;;;;;;;;;;;;;;21.58;36.51;100310.78;4449549;32;20018;-85
2022/09/21 12:09:03;;;;;;;;;;;;;;;21.18;40.41;100305.44;4438609;32;20060;-84
2022/09/21 12:11:29;;;;;;;;;;;;;;;21.07;38.05;100303.88;4423987;32;19985;-83
2022/09/21 12:14:15;;;;;;;;;;;;;;;20.88;38.56;100313.88;4454468;32;21054;-81
2022/09/21 12:16:50;;;;;;;;;;;;;;;20.53;39.15;100316.28;4452895;32;19973;-82
2022/09/21 12:19:17;;;;;;;;;;;;;;;20.51;38.86;100318.03;4456620;32;19992;-84
2022/09/21 12:21:46;;;;;;;;;;;;;;;20.78;38.11;100307.06;4439160;32;20297;-84
2022/09/21 12:24:14;;;;;;;;;;;;;;;20.56;39.63;100297.81;4447008;32;20002;-83
2022/09/21 12:26:42;;;;;;;;;;;;;;;20.56;40.23;100306.56;4441149;32;20007;-82
2022/09/21 12:29:24;;;;;;;;;;;;;;;20.67;38.86;100295.84;4440204;32;20305;-82
2022/09/21 12:32:14;;;;;;;;;;;;;;;20.97;38.26;100301.47;4454139;32;19977;-83
2022/09/21 12:34:42;;;;;;;;;;;;;;;20.88;39.04;100282.31;4443069;32;19984;-81
2022/09/21 12:37:30;;;;;;;;;;;;;;;21.05;37.55;100296.91;4443604;32;19973;-86
2022/09/21 12:40:21;;;;;;;;;;;;;;;21.15;37.95;100285.28;4440966;32;20004;-85
2022/09/21 12:42:49;;;;;;;;;;;;;;;21.18;37.99;100290.50;4454059;32;20302;-85
2022/09/21 12:45:26;;;;;;;;;;;;;;;21.43;37.43;100290.03;4455706;32;20052;-85
2022/09/21 12:47:58;;;;;;;;;;;;;;;21.53;36.53;100292.41;4440179;32;19984;-83
2022/09/21 12:50:27;;;;;;;;;;;;;;;20.99;36.69;100304.91;4427728;32;19993;-82
2022/09/21 12:52:55;;;;;;;;;;;;;;;20.99;35.47;100310.19;4438983;32;19985;-83
2022/09/21 12:55:27;;;;;;;;;;;;;;;20.36;37.68;100308.66;4452365;32;20004;-83
2022/09/21 12:57:54;;;;;;;;;;;;;;;20.10;40.05;100303.78;4451855;32;19981;-81